PWSweather.com
Personal Weather Stations
Station Observations
ANTHEMNP
Anthem North Parkside, Anthem, AZ 85086

Anthem North ParksideAnthem, AZ 85086

Lat: 33.876464, Lon: -112.13861199999997

Elevation: 1930

Station Type: Davis Vantage Vue with Pro 2 console

http://www.azjerry.com/ANPW/wxindex.php

Latest ConditionsUpdated 12:20:02 PM MST Saturday, Apr 20, 2019
Currently Today's Max Today's Min Today's Average
Temperature 85.1°F29.5°C 85.7°F29.8°C 66.6°F19.2°C 74.9°F23.8°C
Dew Point 26.8°F-2.9°C 31.0°F-0.6°C 22.9°F-5.1°C 27.9°F-2.3°C
Winds 4.6 mph S7.4 kmh S 8.1 mph -13.0 kmh - - 2.1 mph 3.4 kmh
Wind Gusts 4.6 mph7.4 kmh 11.5 mph18.5 kmh - -
Humidity 12% 24% 12% 18%
Pressure 29.83 in1010.2 mb 29.85 in1010.8 mb 29.79 in1008.8 mb -
Hour Temp Dew Point Humidity Winds Wind Gusts Pressure Precip Precip Rate Daily Precip Total
12:20 PM 85.1°F29.5°C 26.8°F-2.9°C 12% 4.6 mph S7.4 kmh S 4.6 mph7.4 kmh 29.83 in1010.2 mb - 0.00 in0.0 mm 0.00 in0.0 mm
12:10 PM 85.7°F29.8°C 27.2°F-2.7°C 12% 8.1 mph SW13.0 kmh SW 11.5 mph18.5 kmh 29.83 in1010.2 mb - 0.00 in0.0 mm 0.00 in0.0 mm
12:00 PM 85.2°F29.6°C 26.8°F-2.9°C 12% 5.8 mph SSW9.3 kmh SSW 6.9 mph11.1 kmh 29.83 in1010.2 mb - 0.00 in0.0 mm 0.00 in0.0 mm
11:50 AM 84.5°F29.2°C 26.3°F-3.2°C 12% 3.5 mph SSE5.6 kmh SSE 5.8 mph9.3 kmh 29.83 in1010.2 mb - 0.00 in0.0 mm 0.00 in0.0 mm
11:40 AM 84.5°F29.2°C 28.2°F-2.1°C 13% 6.9 mph S11.1 kmh S 11.5 mph18.5 kmh 29.83 in1010.2 mb - 0.00 in0.0 mm 0.00 in0.0 mm
11:30 AM 83.9°F28.8°C 29.5°F-1.4°C 14% 4.6 mph S7.4 kmh S 5.8 mph9.3 kmh 29.84 in1010.5 mb - 0.00 in0.0 mm 0.00 in0.0 mm
11:20 AM 83.5°F28.6°C 29.2°F-1.6°C 14% 4.6 mph SSW7.4 kmh SSW 8.1 mph13.0 kmh 29.84 in1010.5 mb - 0.00 in0.0 mm 0.00 in0.0 mm
11:10 AM 83.2°F28.4°C 29.0°F-1.7°C 14% 4.6 mph SSW7.4 kmh SSW 9.2 mph14.8 kmh 29.84 in1010.5 mb - 0.00 in0.0 mm 0.00 in0.0 mm
11:00 AM 82.9°F28.3°C 30.5°F-0.8°C 15% 4.6 mph SW7.4 kmh SW 8.1 mph13.0 kmh 29.84 in1010.5 mb - 0.00 in0.0 mm 0.00 in0.0 mm
10:50 AM 82.5°F28.1°C 30.2°F-1.0°C 15% 5.8 mph S9.3 kmh S 10.4 mph16.7 kmh 29.84 in1010.5 mb - 0.00 in0.0 mm 0.00 in0.0 mm
10:40 AM 82.3°F27.9°C 30.0°F-1.1°C 15% 5.8 mph SSW9.3 kmh SSW 6.9 mph11.1 kmh 29.85 in1010.8 mb - 0.00 in0.0 mm 0.00 in0.0 mm
10:30 AM 83.6°F28.7°C 31.0°F-0.6°C 15% 5.8 mph SW9.3 kmh SW 9.2 mph14.8 kmh 29.85 in1010.8 mb - 0.00 in0.0 mm 0.00 in0.0 mm
10:20 AM 82.5°F28.1°C 30.2°F-1.0°C 15% 4.6 mph SW7.4 kmh SW 5.8 mph9.3 kmh 29.85 in1010.8 mb - 0.00 in0.0 mm 0.00 in0.0 mm
10:10 AM 82.6°F28.1°C 28.5°F-1.9°C 14% 3.5 mph SW5.6 kmh SW 4.6 mph7.4 kmh 29.85 in1010.8 mb - 0.00 in0.0 mm 0.00 in0.0 mm
10:00 AM 81.6°F27.6°C 27.8°F-2.3°C 14% 2.3 mph SW3.7 kmh SW 4.6 mph7.4 kmh 29.85 in1010.8 mb - 0.00 in0.0 mm 0.00 in0.0 mm
09:50 AM 81.7°F27.6°C 29.5°F-1.4°C 15% 2.3 mph S3.7 kmh S 3.5 mph5.6 kmh 29.84 in1010.5 mb - 0.00 in0.0 mm 0.00 in0.0 mm
09:40 AM 81.0°F27.2°C 27.3°F-2.6°C 14% 1.2 mph SSE1.9 kmh SSE 2.3 mph3.7 kmh 29.84 in1010.5 mb - 0.00 in0.0 mm 0.00 in0.0 mm
09:30 AM 81.3°F27.4°C 29.2°F-1.6°C 15% 2.3 mph SSW3.7 kmh SSW 3.5 mph5.6 kmh 29.84 in1010.5 mb - 0.00 in0.0 mm 0.00 in0.0 mm
09:20 AM 80.5°F26.9°C 28.6°F-1.9°C 15% 1.2 mph SSE1.9 kmh SSE 3.5 mph5.6 kmh 29.84 in1010.5 mb - 0.00 in0.0 mm 0.00 in0.0 mm
09:10 AM 79.6°F26.4°C 27.9°F-2.3°C 15% 2.3 mph S3.7 kmh S 2.3 mph3.7 kmh 29.84 in1010.5 mb - 0.00 in0.0 mm 0.00 in0.0 mm
09:00 AM 79.4°F26.3°C 27.7°F-2.4°C 15% 3.5 mph SE5.6 kmh SE 3.5 mph5.6 kmh 29.84 in1010.5 mb - 0.00 in0.0 mm 0.00 in0.0 mm
08:50 AM 79.5°F26.4°C 29.4°F-1.4°C 16% 2.3 mph SE3.7 kmh SE 5.8 mph9.3 kmh 29.84 in1010.5 mb - 0.00 in0.0 mm 0.00 in0.0 mm
08:40 AM 79.9°F26.6°C 29.6°F-1.3°C 16% 3.5 mph SSE5.6 kmh SSE 5.8 mph9.3 kmh 29.84 in1010.5 mb - 0.00 in0.0 mm 0.00 in0.0 mm
08:30 AM 79.2°F26.2°C 30.6°F-0.8°C 17% 3.5 mph SE5.6 kmh SE 4.6 mph7.4 kmh 29.84 in1010.5 mb - 0.00 in0.0 mm 0.00 in0.0 mm
08:20 AM 79.1°F26.2°C 30.5°F-0.8°C 17% 2.3 mph SE3.7 kmh SE 5.8 mph9.3 kmh 29.84 in1010.5 mb - 0.00 in0.0 mm 0.00 in0.0 mm
08:10 AM 77.9°F25.5°C 29.5°F-1.4°C 17% 3.5 mph SSE5.6 kmh SSE 4.6 mph7.4 kmh 29.84 in1010.5 mb - 0.00 in0.0 mm 0.00 in0.0 mm
08:00 AM 77.4°F25.2°C 29.2°F-1.6°C 17% 2.3 mph S3.7 kmh S 3.5 mph5.6 kmh 29.84 in1010.5 mb - 0.00 in0.0 mm 0.00 in0.0 mm
07:50 AM 77.8°F25.4°C 28.0°F-2.2°C 16% 2.3 mph SE3.7 kmh SE 4.6 mph7.4 kmh 29.84 in1010.5 mb - 0.00 in0.0 mm 0.00 in0.0 mm
07:40 AM 76.6°F24.8°C 29.9°F-1.2°C 18% 2.3 mph SE3.7 kmh SE 3.5 mph5.6 kmh 29.83 in1010.2 mb - 0.00 in0.0 mm 0.00 in0.0 mm
07:30 AM 74.3°F23.5°C 29.3°F-1.5°C 19% 1.2 mph SE1.9 kmh SE 3.5 mph5.6 kmh 29.83 in1010.2 mb - 0.00 in0.0 mm 0.00 in0.0 mm
07:20 AM 73.2°F22.9°C 29.7°F-1.3°C 20% 2.3 mph SE3.7 kmh SE 3.5 mph5.6 kmh 29.82 in1009.8 mb - 0.00 in0.0 mm 0.00 in0.0 mm
07:10 AM 71.7°F22.1°C 29.6°F-1.3°C 21% 2.3 mph SSE3.7 kmh SSE 3.5 mph5.6 kmh 29.83 in1010.2 mb - 0.00 in0.0 mm 0.00 in0.0 mm
07:00 AM 69.3°F20.7°C 30.9°F-0.6°C 24% Calm Calm 1.2 mph1.9 kmh 29.82 in1009.8 mb - 0.00 in0.0 mm 0.00 in0.0 mm
06:50 AM 68.4°F20.2°C 30.2°F-1.0°C 24% Calm Calm 1.2 mph1.9 kmh 29.82 in1009.8 mb - 0.00 in0.0 mm 0.00 in0.0 mm
06:40 AM 67.5°F19.7°C 29.4°F-1.4°C 24% Calm Calm -- 29.81 in1009.5 mb - 0.00 in0.0 mm 0.00 in0.0 mm
06:30 AM 67.8°F19.9°C 28.6°F-1.9°C 23% Calm Calm -- 29.81 in1009.5 mb - 0.00 in0.0 mm 0.00 in0.0 mm
06:20 AM 67.8°F19.9°C 28.6°F-1.9°C 23% Calm Calm -- 29.81 in1009.5 mb - 0.00 in0.0 mm 0.00 in0.0 mm
06:10 AM 68.2°F20.1°C 27.9°F-2.3°C 22% Calm Calm -- 29.80 in1009.1 mb - 0.00 in0.0 mm 0.00 in0.0 mm
06:00 AM 69.3°F20.7°C 28.8°F-1.8°C 22% Calm Calm -- 29.80 in1009.1 mb - 0.00 in0.0 mm 0.00 in0.0 mm
05:50 AM 70.0°F21.1°C 28.2°F-2.1°C 21% 1.2 mph SE1.9 kmh SE 2.3 mph3.7 kmh 29.80 in1009.1 mb - 0.00 in0.0 mm 0.00 in0.0 mm
05:40 AM 70.3°F21.3°C 29.6°F-1.3°C 22% Calm Calm 1.2 mph1.9 kmh 29.80 in1009.1 mb - 0.00 in0.0 mm 0.00 in0.0 mm
05:30 AM 70.8°F21.6°C 28.9°F-1.7°C 21% 1.2 mph SE1.9 kmh SE 1.2 mph1.9 kmh 29.80 in1009.1 mb - 0.00 in0.0 mm 0.00 in0.0 mm
05:20 AM 71.1°F21.7°C 28.0°F-2.2°C 20% Calm Calm 1.2 mph1.9 kmh 29.79 in1008.8 mb - 0.00 in0.0 mm 0.00 in0.0 mm
05:10 AM 71.2°F21.8°C 29.2°F-1.6°C 21% Calm Calm -- 29.79 in1008.8 mb - 0.00 in0.0 mm 0.00 in0.0 mm
05:00 AM 71.4°F21.9°C 29.4°F-1.4°C 21% Calm Calm 2.3 mph3.7 kmh 29.79 in1008.8 mb - 0.00 in0.0 mm 0.00 in0.0 mm
04:50 AM 71.5°F21.9°C 28.3°F-2.1°C 20% Calm Calm 1.2 mph1.9 kmh 29.79 in1008.8 mb - 0.00 in0.0 mm 0.00 in0.0 mm
04:40 AM 71.7°F22.1°C 29.7°F-1.3°C 21% 1.2 mph SE1.9 kmh SE 1.2 mph1.9 kmh 29.79 in1008.8 mb - 0.00 in0.0 mm 0.00 in0.0 mm
04:30 AM 71.7°F22.1°C 29.7°F-1.3°C 21% 2.3 mph SE3.7 kmh SE 3.5 mph5.6 kmh 29.79 in1008.8 mb - 0.00 in0.0 mm 0.00 in0.0 mm
04:20 AM 71.8°F22.1°C 28.5°F-1.9°C 20% 1.2 mph SE1.9 kmh SE 1.2 mph1.9 kmh 29.79 in1008.8 mb - 0.00 in0.0 mm 0.00 in0.0 mm
04:10 AM 71.9°F22.2°C 28.6°F-1.9°C 20% 1.2 mph SE1.9 kmh SE 2.3 mph3.7 kmh 29.79 in1008.8 mb - 0.00 in0.0 mm 0.00 in0.0 mm
04:00 AM 72.1°F22.3°C 28.8°F-1.8°C 20% 1.2 mph SE1.9 kmh SE 2.3 mph3.7 kmh 29.80 in1009.1 mb - 0.00 in0.0 mm 0.00 in0.0 mm
03:50 AM 71.7°F22.1°C 28.5°F-1.9°C 20% Calm Calm 1.2 mph1.9 kmh 29.79 in1008.8 mb - 0.00 in0.0 mm 0.00 in0.0 mm
03:40 AM 71.4°F21.9°C 28.2°F-2.1°C 20% 1.2 mph SE1.9 kmh SE 1.2 mph1.9 kmh 29.80 in1009.1 mb - 0.00 in0.0 mm 0.00 in0.0 mm
03:30 AM 70.7°F21.5°C 27.6°F-2.4°C 20% Calm Calm 2.3 mph3.7 kmh 29.80 in1009.1 mb - 0.00 in0.0 mm 0.00 in0.0 mm
03:20 AM 70.3°F21.3°C 27.3°F-2.6°C 20% Calm Calm 1.2 mph1.9 kmh 29.80 in1009.1 mb - 0.00 in0.0 mm 0.00 in0.0 mm
03:10 AM 68.9°F20.5°C 27.3°F-2.6°C 21% Calm Calm 1.2 mph1.9 kmh 29.80 in1009.1 mb - 0.00 in0.0 mm 0.00 in0.0 mm
03:00 AM 68.5°F20.3°C 27.0°F-2.8°C 21% Calm Calm -- 29.80 in1009.1 mb - 0.00 in0.0 mm 0.00 in0.0 mm
02:50 AM 68.5°F20.3°C 25.8°F-3.4°C 20% Calm Calm 1.2 mph1.9 kmh 29.80 in1009.1 mb - 0.00 in0.0 mm 0.00 in0.0 mm
02:40 AM 68.2°F20.1°C 25.5°F-3.6°C 20% Calm Calm 1.2 mph1.9 kmh 29.80 in1009.1 mb - 0.00 in0.0 mm 0.00 in0.0 mm
02:30 AM 66.8°F19.3°C 25.6°F-3.6°C 21% 1.2 mph NNE1.9 kmh NNE 1.2 mph1.9 kmh 29.80 in1009.1 mb - 0.00 in0.0 mm 0.00 in0.0 mm
02:20 AM 66.6°F19.2°C 25.4°F-3.7°C 21% Calm Calm -- 29.80 in1009.1 mb - 0.00 in0.0 mm 0.00 in0.0 mm
02:10 AM 67.5°F19.7°C 28.4°F-2.0°C 23% Calm Calm -- 29.80 in1009.1 mb - 0.00 in0.0 mm 0.00 in0.0 mm
02:00 AM 68.9°F20.5°C 27.3°F-2.6°C 21% Calm Calm -- 29.80 in1009.1 mb - 0.00 in0.0 mm 0.00 in0.0 mm
01:50 AM 70.0°F21.1°C 27.1°F-2.7°C 20% Calm Calm -- 29.80 in1009.1 mb - 0.00 in0.0 mm 0.00 in0.0 mm
01:40 AM 71.2°F21.8°C 24.1°F-4.4°C 17% Calm Calm -- 29.80 in1009.1 mb - 0.00 in0.0 mm 0.00 in0.0 mm
01:30 AM 72.3°F22.4°C 23.6°F-4.7°C 16% 1.2 mph N1.9 kmh N 1.2 mph1.9 kmh 29.80 in1009.1 mb - 0.00 in0.0 mm 0.00 in0.0 mm
01:20 AM 72.5°F22.5°C 23.7°F-4.6°C 16% 1.2 mph NE1.9 kmh NE 3.5 mph5.6 kmh 29.80 in1009.1 mb - 0.00 in0.0 mm 0.00 in0.0 mm
01:10 AM 72.7°F22.6°C 23.9°F-4.5°C 16% 1.2 mph N1.9 kmh N 1.2 mph1.9 kmh 29.80 in1009.1 mb - 0.00 in0.0 mm 0.00 in0.0 mm
01:00 AM 73.3°F22.9°C 24.4°F-4.2°C 16% 2.3 mph NNE3.7 kmh NNE 3.5 mph5.6 kmh 29.81 in1009.5 mb - 0.00 in0.0 mm 0.00 in0.0 mm
12:50 AM 73.4°F23.0°C 22.9°F-5.1°C 15% 2.3 mph N3.7 kmh N 3.5 mph5.6 kmh 29.81 in1009.5 mb - 0.00 in0.0 mm 0.00 in0.0 mm
12:40 AM 73.3°F22.9°C 24.4°F-4.2°C 16% 4.6 mph NNE7.4 kmh NNE 4.6 mph7.4 kmh 29.81 in1009.5 mb - 0.00 in0.0 mm 0.00 in0.0 mm
12:30 AM 73.4°F23.0°C 24.5°F-4.2°C 16% 3.5 mph N5.6 kmh N 3.5 mph5.6 kmh 29.81 in1009.5 mb - 0.00 in0.0 mm 0.00 in0.0 mm
12:20 AM 73.8°F23.2°C 23.2°F-4.9°C 15% 3.5 mph N5.6 kmh N 3.5 mph5.6 kmh 29.81 in1009.5 mb - 0.00 in0.0 mm 0.00 in0.0 mm
12:10 AM 73.8°F23.2°C 23.2°F-4.9°C 15% 3.5 mph NNE5.6 kmh NNE 5.8 mph9.3 kmh 29.81 in1009.5 mb - 0.00 in0.0 mm 0.00 in0.0 mm
12:00 AM 74.5°F23.6°C 23.8°F-4.6°C 15% 3.5 mph N5.6 kmh N 5.8 mph9.3 kmh 29.81 in1009.5 mb - 0.00 in0.0 mm 0.00 in0.0 mm